createdAt,value
2019-03-05T00:00:05.505Z,2.75
2019-03-05T00:01:05.499Z,2.69
2019-03-05T00:02:05.478Z,2.69
2019-03-05T00:03:05.487Z,2.69
2019-03-05T00:04:05.459Z,2.66
2019-03-05T00:05:05.446Z,2.72
2019-03-05T00:06:05.461Z,2.59
2019-03-05T00:07:05.419Z,2.64
2019-03-05T00:08:05.406Z,2.63
2019-03-05T00:09:05.426Z,2.64
2019-03-05T00:10:05.387Z,2.66
2019-03-05T00:11:05.374Z,2.72
2019-03-05T00:12:05.377Z,2.67
2019-03-05T00:13:05.354Z,2.69
2019-03-05T00:14:05.349Z,2.67
2019-03-05T00:15:05.383Z,2.63
2019-03-05T00:16:05.324Z,2.72
2019-03-05T00:17:05.328Z,2.67
2019-03-05T00:18:05.300Z,2.71
2019-03-05T00:19:05.299Z,2.67
2019-03-05T00:20:05.295Z,2.66
2019-03-05T00:21:05.279Z,2.71
2019-03-05T00:22:05.247Z,2.67
2019-03-05T00:23:05.255Z,2.77
2019-03-05T00:24:05.232Z,2.66
2019-03-05T00:25:05.224Z,2.66
2019-03-05T00:26:05.289Z,2.61
2019-03-05T00:27:05.191Z,2.61
2019-03-05T00:28:05.187Z,2.67
2019-03-05T00:29:05.193Z,2.61
2019-03-05T00:30:05.170Z,2.69
2019-03-05T00:31:05.148Z,2.67
2019-03-05T00:32:05.175Z,2.69
2019-03-05T00:33:05.124Z,2.57
2019-03-05T00:34:05.138Z,2.66
2019-03-05T00:35:05.116Z,2.66
2019-03-05T00:36:05.093Z,2.54
2019-03-05T00:37:05.083Z,2.59
2019-03-05T00:38:05.097Z,2.60
2019-03-05T00:39:05.094Z,2.60
2019-03-05T00:40:05.050Z,2.63
2019-03-05T00:41:05.044Z,2.63
2019-03-05T00:42:05.029Z,2.56
2019-03-05T00:43:05.014Z,2.59
2019-03-05T00:44:05.023Z,2.52
2019-03-05T00:45:05.014Z,2.54
2019-03-05T00:46:04.988Z,2.59
2019-03-05T00:47:04.976Z,2.59
2019-03-05T00:48:04.961Z,2.66
2019-03-05T00:49:04.948Z,2.60
2019-03-05T00:50:04.957Z,2.63
2019-03-05T00:51:04.938Z,2.56
2019-03-05T00:52:04.924Z,2.59
2019-03-05T00:53:04.905Z,2.60
2019-03-05T00:54:04.895Z,2.57
2019-03-05T00:55:04.881Z,2.63
2019-03-05T00:56:04.903Z,2.59
2019-03-05T00:57:04.874Z,2.61
2019-03-05T00:58:04.847Z,2.61
2019-03-05T00:59:04.832Z,2.56
2019-03-05T01:00:04.825Z,2.61
2019-03-05T01:01:04.813Z,2.64
2019-03-05T01:02:04.833Z,2.69
2019-03-05T01:03:04.789Z,2.72
2019-03-05T01:04:04.782Z,2.72
2019-03-05T01:05:04.763Z,2.67
2019-03-05T01:06:04.757Z,2.71
2019-03-05T01:07:04.822Z,2.72
2019-03-05T01:08:04.737Z,2.64
2019-03-05T01:09:04.757Z,2.61
2019-03-05T01:10:04.701Z,2.60
2019-03-05T01:11:04.703Z,2.64
2019-03-05T01:12:04.710Z,2.60
2019-03-05T01:13:04.680Z,2.61
2019-03-05T01:14:04.676Z,2.63
2019-03-05T01:15:04.689Z,2.61
2019-03-05T01:16:04.647Z,2.59
2019-03-05T01:17:04.636Z,2.61
2019-03-05T01:18:04.657Z,2.57
2019-03-05T01:19:04.618Z,2.63
2019-03-05T01:20:04.612Z,2.60
2019-03-05T01:21:04.632Z,2.67
2019-03-05T01:22:04.578Z,2.64
2019-03-05T01:23:04.565Z,2.64
2019-03-05T01:24:04.728Z,2.63
2019-03-05T01:25:04.543Z,2.66
2019-03-05T01:26:04.525Z,2.49
2019-03-05T01:27:04.540Z,2.61
2019-03-05T01:28:04.510Z,2.63
2019-03-05T01:29:04.502Z,2.56
2019-03-05T01:30:04.506Z,2.52
2019-03-05T01:31:04.473Z,2.61
2019-03-05T01:32:04.461Z,2.63
2019-03-05T01:33:04.474Z,2.61
2019-03-05T01:34:04.439Z,2.66
2019-03-05T01:35:04.446Z,2.63
2019-03-05T01:36:04.420Z,2.63
2019-03-05T01:37:04.403Z,2.64
2019-03-05T01:38:04.397Z,2.61
2019-03-05T01:39:04.401Z,2.49
2019-03-05T01:40:04.398Z,2.61
2019-03-05T01:41:04.367Z,2.54
2019-03-05T01:42:04.351Z,2.63
2019-03-05T01:43:04.342Z,2.63
2019-03-05T01:44:04.328Z,2.67
2019-03-05T01:45:04.373Z,2.64
2019-03-05T01:46:04.305Z,2.69
2019-03-05T01:47:04.294Z,2.71
2019-03-05T01:48:04.308Z,2.63
2019-03-05T01:49:04.276Z,2.63
2019-03-05T01:50:04.259Z,2.60
2019-03-05T01:51:04.293Z,2.61
2019-03-05T01:52:04.238Z,2.64
2019-03-05T01:53:04.227Z,2.77
2019-03-05T01:54:04.286Z,2.78
2019-03-05T01:55:04.208Z,2.78
2019-03-05T01:56:04.453Z,2.75
2019-03-05T01:57:04.223Z,2.89
2019-03-05T01:58:04.167Z,2.89
2019-03-05T01:59:04.161Z,2.92
2019-03-05T02:00:04.152Z,2.95
2019-03-05T02:01:04.149Z,2.92
2019-03-05T02:02:04.133Z,2.96
2019-03-05T02:03:04.135Z,2.95
2019-03-05T02:04:04.103Z,2.96
2019-03-05T02:05:04.096Z,3.03
2019-03-05T02:06:04.084Z,3.00
2019-03-05T02:07:04.083Z,3.00
2019-03-05T02:08:04.059Z,3.06
2019-03-05T02:09:04.068Z,3.03
2019-03-05T02:10:04.038Z,3.13
2019-03-05T02:11:04.029Z,3.08
2019-03-05T02:12:04.007Z,3.10
2019-03-05T02:13:04.013Z,3.10
2019-03-05T02:14:03.992Z,3.14
2019-03-05T02:15:04.008Z,3.11
2019-03-05T02:16:04.000Z,3.24
2019-03-05T02:17:03.957Z,3.24
2019-03-05T02:18:03.946Z,3.29
2019-03-05T02:19:03.938Z,3.29
2019-03-05T02:20:03.945Z,3.18
2019-03-05T02:21:03.938Z,3.24
2019-03-05T02:22:03.900Z,3.20
2019-03-05T02:23:03.890Z,3.29
2019-03-05T02:24:03.879Z,3.23
2019-03-05T02:25:03.866Z,3.23
2019-03-05T02:26:03.877Z,3.23
2019-03-05T02:27:03.890Z,3.21
2019-03-05T02:28:03.827Z,3.26
2019-03-05T02:29:03.816Z,3.31
2019-03-05T02:30:03.807Z,3.29
2019-03-05T02:31:03.795Z,3.39
2019-03-05T02:32:03.810Z,3.35
2019-03-05T02:33:03.798Z,3.32
2019-03-05T02:34:03.761Z,3.39
2019-03-05T02:35:03.756Z,3.35
2019-03-05T02:36:03.742Z,3.42
2019-03-05T02:37:03.725Z,3.28
2019-03-05T02:38:05.634Z,3.35
2019-03-05T02:39:03.715Z,3.26
2019-03-05T02:40:03.700Z,3.29
2019-03-05T02:41:03.690Z,3.26
2019-03-05T02:42:03.678Z,3.29
2019-03-05T02:43:03.660Z,3.32
2019-03-05T02:44:03.656Z,3.28
2019-03-05T02:45:03.668Z,3.28
2019-03-05T02:46:03.628Z,3.31
2019-03-05T02:47:03.623Z,3.42
2019-03-05T02:48:03.603Z,3.35
2019-03-05T02:49:03.603Z,3.32
2019-03-05T02:50:03.593Z,3.31
2019-03-05T02:51:03.592Z,3.28
2019-03-05T02:52:03.560Z,3.29
2019-03-05T02:53:03.554Z,3.36
2019-03-05T02:54:03.560Z,3.29
2019-03-05T02:55:03.530Z,3.26
2019-03-05T02:56:03.513Z,3.33
2019-03-05T02:57:03.525Z,3.42
2019-03-05T02:58:03.492Z,3.28
2019-03-05T02:59:03.482Z,3.24
2019-03-05T03:00:03.484Z,3.29
2019-03-05T03:01:03.484Z,3.26
2019-03-05T03:02:03.445Z,3.24
2019-03-05T03:03:03.466Z,3.28
2019-03-05T03:04:03.427Z,3.29
2019-03-05T03:05:03.438Z,3.28
2019-03-05T03:06:03.408Z,3.29
2019-03-05T03:07:03.404Z,3.31
2019-03-05T03:08:03.380Z,3.32
2019-03-05T03:09:03.394Z,3.29
2019-03-05T03:10:03.390Z,3.31
2019-03-05T03:11:03.356Z,3.28
2019-03-05T03:12:03.336Z,3.21
2019-03-05T03:13:03.321Z,3.32
2019-03-05T03:14:03.311Z,3.23
2019-03-05T03:15:03.332Z,3.29
2019-03-05T03:16:03.295Z,3.28
2019-03-05T03:17:03.278Z,3.29
2019-03-05T03:18:03.273Z,3.29
2019-03-05T03:19:03.258Z,3.31
2019-03-05T03:20:03.258Z,3.21
2019-03-05T03:21:03.265Z,3.26
2019-03-05T03:22:03.253Z,3.35
2019-03-05T03:23:03.207Z,3.31
2019-03-05T03:24:03.203Z,3.28
2019-03-05T03:25:03.195Z,3.31
2019-03-05T03:26:03.173Z,3.32
2019-03-05T03:27:03.187Z,3.28
2019-03-05T03:28:03.177Z,3.28
2019-03-05T03:29:03.146Z,3.35
2019-03-05T03:30:03.147Z,3.40
2019-03-05T03:31:03.116Z,3.35
2019-03-05T03:32:03.106Z,3.35
2019-03-05T03:33:03.124Z,3.31
2019-03-05T03:34:03.112Z,3.24
2019-03-05T03:35:03.073Z,3.33
2019-03-05T03:36:03.065Z,3.23
2019-03-05T03:37:03.050Z,3.28
2019-03-05T03:38:03.047Z,3.32
2019-03-05T03:39:03.029Z,3.28
2019-03-05T03:40:06.062Z,3.28
2019-03-05T03:41:03.015Z,3.18
2019-03-05T03:42:02.996Z,3.15
2019-03-05T03:43:03.030Z,3.17
2019-03-05T03:44:02.980Z,3.18
2019-03-05T03:45:02.974Z,3.06
2019-03-05T03:46:02.981Z,3.11
2019-03-05T03:47:02.936Z,3.06
2019-03-05T03:48:02.944Z,3.08
2019-03-05T03:49:02.940Z,3.10
2019-03-05T03:50:02.906Z,3.17
2019-03-05T03:51:02.894Z,3.14
2019-03-05T03:52:02.908Z,3.14
2019-03-05T03:53:02.874Z,3.10
2019-03-05T03:54:02.867Z,3.11
2019-03-05T03:55:02.874Z,3.10
2019-03-05T03:56:02.844Z,3.10
2019-03-05T03:57:02.826Z,3.08
2019-03-05T03:58:02.841Z,3.06
2019-03-05T03:59:02.810Z,3.10
2019-03-05T04:00:02.794Z,3.10
2019-03-05T04:01:02.805Z,3.14
2019-03-05T04:02:02.774Z,3.06
2019-03-05T04:03:02.762Z,3.11
2019-03-05T04:04:02.799Z,3.08
2019-03-05T04:05:02.744Z,2.97
2019-03-05T04:06:02.740Z,2.95
2019-03-05T04:07:02.716Z,3.02
2019-03-05T04:08:14.786Z,2.95
2019-03-05T04:10:14.025Z,3.03
2019-03-05T04:11:14.063Z,3.02
2019-03-05T04:12:13.972Z,3.06
2019-03-05T04:13:14.029Z,2.95
2019-03-05T04:14:13.911Z,2.97
2019-03-05T04:15:13.889Z,2.99
2019-03-05T04:16:14.671Z,3.00
2019-03-05T04:17:13.886Z,2.95
2019-03-05T04:18:13.847Z,3.02
2019-03-05T04:19:13.862Z,2.96
2019-03-05T04:20:13.829Z,2.97
2019-03-05T04:21:13.815Z,2.84
2019-03-05T04:22:13.802Z,2.85
2019-03-05T04:23:13.801Z,2.93
2019-03-05T04:24:13.809Z,2.82
2019-03-05T04:25:13.761Z,2.85
2019-03-05T04:26:13.754Z,2.85
2019-03-05T04:27:13.751Z,2.90
2019-03-05T04:28:13.761Z,2.85
2019-03-05T04:29:13.726Z,2.87
2019-03-05T04:30:13.738Z,2.89
2019-03-05T04:31:13.705Z,2.89
2019-03-05T04:32:13.699Z,2.84
2019-03-05T04:33:13.684Z,2.95
2019-03-05T04:34:13.670Z,2.93
2019-03-05T04:35:13.652Z,2.90
2019-03-05T04:36:13.655Z,2.89
2019-03-05T04:37:13.628Z,2.92
2019-03-05T04:38:13.624Z,2.87
2019-03-05T04:39:13.637Z,2.84
2019-03-05T04:40:13.600Z,2.89
2019-03-05T04:41:13.617Z,2.89
2019-03-05T04:42:13.581Z,2.84
2019-03-05T04:43:13.562Z,2.89
2019-03-05T04:44:13.553Z,2.89
2019-03-05T04:45:13.648Z,2.82
2019-03-05T04:46:13.525Z,2.85
2019-03-05T04:47:13.530Z,2.75
2019-03-05T04:48:13.512Z,2.74
2019-03-05T04:49:13.493Z,2.81
2019-03-05T04:50:13.486Z,2.75
2019-03-05T04:51:13.485Z,2.82
2019-03-05T04:52:13.506Z,2.81
2019-03-05T04:53:13.484Z,2.84
2019-03-05T04:54:13.441Z,2.82
2019-03-05T04:55:13.428Z,2.87
2019-03-05T04:56:13.445Z,2.87
2019-03-05T04:57:13.408Z,2.84
2019-03-05T04:58:13.397Z,2.82
2019-03-05T04:59:13.408Z,2.90
2019-03-05T05:00:13.373Z,2.84
2019-03-05T05:01:13.366Z,2.87
2019-03-05T05:02:13.370Z,2.82
2019-03-05T05:03:13.344Z,2.89
2019-03-05T05:04:13.326Z,2.92
2019-03-05T05:05:13.340Z,2.89
2019-03-05T05:06:13.304Z,2.87
2019-03-05T05:07:13.290Z,2.89
2019-03-05T05:08:13.290Z,2.92
2019-03-05T05:09:13.276Z,2.93
2019-03-05T05:10:13.264Z,2.92
2019-03-05T05:11:13.287Z,2.85
2019-03-05T05:12:13.240Z,2.89
2019-03-05T05:13:13.250Z,2.93
2019-03-05T05:14:13.218Z,2.93
2019-03-05T05:15:13.205Z,2.85
2019-03-05T05:16:13.205Z,2.87
2019-03-05T05:17:13.196Z,2.85
2019-03-05T05:18:13.164Z,2.90
2019-03-05T05:19:13.187Z,2.89
2019-03-05T05:20:13.144Z,2.90
2019-03-05T05:21:13.140Z,2.82
2019-03-05T05:22:13.133Z,2.89
2019-03-05T05:23:13.119Z,2.90
2019-03-05T05:24:13.121Z,2.87
2019-03-05T05:25:13.129Z,2.87
2019-03-05T05:26:13.081Z,2.89
2019-03-05T05:27:13.071Z,2.85
2019-03-05T05:28:13.066Z,2.84
2019-03-05T05:29:13.040Z,2.89
2019-03-05T05:30:13.036Z,2.85
2019-03-05T05:31:13.065Z,2.87
2019-03-05T05:32:13.010Z,3.00
2019-03-05T05:33:13.000Z,2.90
2019-03-05T05:34:13.008Z,3.00
2019-03-05T05:35:12.996Z,2.84
2019-03-05T05:36:12.999Z,2.87
2019-03-05T05:37:12.953Z,2.99
2019-03-05T05:38:12.962Z,2.97
2019-03-05T05:39:12.936Z,2.99
2019-03-05T05:40:12.959Z,3.02
2019-03-05T05:41:12.920Z,2.95
2019-03-05T05:42:12.935Z,3.06
2019-03-05T05:43:12.895Z,2.92
2019-03-05T05:44:12.934Z,2.97
2019-03-05T05:45:12.869Z,2.99
2019-03-05T05:46:12.868Z,3.00
2019-03-05T05:47:12.840Z,2.96
2019-03-05T05:48:12.849Z,3.00
2019-03-05T05:49:12.827Z,2.96
2019-03-05T05:50:12.808Z,3.10
2019-03-05T05:51:12.796Z,3.02
2019-03-05T05:52:12.811Z,3.03
2019-03-05T05:53:12.803Z,3.11
2019-03-05T05:54:12.767Z,3.08
2019-03-05T05:55:12.757Z,3.08
2019-03-05T05:56:12.754Z,3.10
2019-03-05T05:57:12.729Z,3.11
2019-03-05T05:58:12.740Z,3.14
2019-03-05T05:59:12.719Z,3.13
2019-03-05T06:00:12.692Z,3.08
2019-03-05T06:01:12.689Z,3.15
2019-03-05T06:02:12.676Z,3.11
2019-03-05T06:03:12.666Z,3.08
2019-03-05T06:04:12.696Z,3.13
2019-03-05T06:05:12.639Z,3.10
2019-03-05T06:06:12.631Z,3.08
2019-03-05T06:07:12.624Z,3.06
2019-03-05T06:08:12.605Z,3.14
2019-03-05T06:09:12.603Z,3.15
2019-03-05T06:10:12.612Z,3.10
2019-03-05T06:11:12.567Z,3.13
2019-03-05T06:12:12.567Z,3.10
2019-03-05T06:13:12.550Z,3.10
2019-03-05T06:14:12.535Z,3.05
2019-03-05T06:15:12.544Z,3.06
2019-03-05T06:16:12.531Z,3.13
2019-03-05T06:17:12.512Z,3.17
2019-03-05T06:18:12.499Z,3.10
2019-03-05T06:19:12.489Z,3.17
2019-03-05T06:20:12.477Z,3.21
2019-03-05T06:21:12.517Z,3.17
2019-03-05T06:22:12.444Z,3.21
2019-03-05T06:23:12.442Z,3.24
2019-03-05T06:24:12.423Z,3.23
2019-03-05T06:25:12.417Z,3.32
2019-03-05T06:26:12.401Z,3.23
2019-03-05T06:27:12.430Z,3.40
2019-03-05T06:28:12.383Z,3.32
2019-03-05T06:29:12.378Z,3.42
2019-03-05T06:30:12.357Z,3.43
2019-03-05T06:31:12.344Z,3.43
2019-03-05T06:32:12.340Z,3.50
2019-03-05T06:33:12.357Z,3.47
2019-03-05T06:34:12.316Z,3.52
2019-03-05T06:35:12.304Z,3.43
2019-03-05T06:36:12.288Z,3.52
2019-03-05T06:37:12.274Z,3.50
2019-03-05T06:38:12.288Z,3.48
2019-03-05T06:39:12.275Z,3.36
2019-03-05T06:40:12.248Z,3.40
2019-03-05T06:41:12.237Z,3.47
2019-03-05T06:42:12.228Z,3.48
2019-03-05T06:43:12.206Z,3.43
2019-03-05T06:44:12.221Z,3.47
2019-03-05T06:45:12.214Z,3.43
2019-03-05T06:46:12.185Z,3.43
2019-03-05T06:47:12.169Z,3.45
2019-03-05T06:48:12.148Z,3.43
2019-03-05T06:49:12.141Z,3.52
2019-03-05T06:50:12.169Z,3.50
2019-03-05T06:51:12.121Z,3.45
2019-03-05T06:52:12.134Z,3.43
2019-03-05T06:53:12.094Z,3.43
2019-03-05T06:54:12.087Z,3.50
2019-03-05T06:55:12.077Z,3.47
2019-03-05T06:56:12.086Z,3.45
2019-03-05T06:57:12.058Z,3.48
2019-03-05T06:58:12.126Z,3.55
2019-03-05T06:59:12.021Z,3.51
2019-03-05T07:00:12.018Z,3.50
2019-03-05T07:01:12.032Z,3.42
2019-03-05T07:02:12.005Z,3.45
2019-03-05T07:03:11.985Z,3.43
2019-03-05T07:04:11.989Z,3.51
2019-03-05T07:05:11.963Z,3.51
2019-03-05T07:06:11.948Z,3.48
2019-03-05T07:07:11.969Z,3.47
2019-03-05T07:08:11.925Z,3.47
2019-03-05T07:09:11.917Z,3.50
2019-03-05T07:10:11.922Z,3.52
2019-03-05T07:11:11.892Z,3.58
2019-03-05T07:12:11.926Z,3.52
2019-03-05T07:13:11.876Z,3.62
2019-03-05T07:14:11.864Z,3.55
2019-03-05T07:15:11.845Z,3.47
2019-03-05T07:16:11.850Z,3.48
2019-03-05T07:17:11.831Z,3.39
2019-03-05T07:18:11.840Z,3.35
2019-03-05T07:19:11.808Z,3.14
2019-03-05T07:20:11.823Z,3.08
2019-03-05T07:21:11.780Z,2.85
2019-03-05T07:22:11.773Z,2.72
2019-03-05T07:23:11.963Z,2.67
2019-03-05T07:24:14.242Z,2.63
2019-03-05T07:25:34.957Z,2.60
2019-03-05T07:26:12.928Z,2.56
2019-03-05T07:27:15.821Z,2.46
2019-03-05T07:28:13.115Z,2.53
2019-03-05T07:29:12.304Z,2.45
2019-03-05T07:30:11.966Z,2.36
2019-03-05T07:31:12.008Z,2.45
2019-03-05T07:32:11.702Z,2.35
2019-03-05T07:33:11.645Z,2.45
2019-03-05T07:34:13.024Z,2.38
2019-03-05T07:35:11.873Z,2.41
2019-03-05T07:36:12.579Z,2.36
2019-03-05T07:37:11.798Z,2.27
2019-03-05T07:38:11.601Z,2.28
2019-03-05T07:39:11.574Z,2.23
2019-03-05T07:40:11.673Z,2.23
2019-03-05T07:41:11.553Z,2.20
2019-03-05T07:42:11.580Z,2.21
2019-03-05T07:43:13.195Z,2.17
2019-03-05T07:44:12.175Z,2.16
2019-03-05T07:45:11.517Z,2.05
2019-03-05T07:46:11.513Z,2.07
2019-03-05T07:47:11.502Z,2.03
2019-03-05T07:48:11.475Z,2.00
2019-03-05T07:49:11.483Z,1.91
2019-03-05T07:50:11.445Z,2.02
2019-03-05T07:51:11.457Z,2.07
2019-03-05T07:52:11.449Z,2.10
2019-03-05T07:53:11.422Z,2.12
2019-03-05T07:54:11.406Z,2.18
2019-03-05T07:55:13.920Z,2.06
2019-03-05T07:56:11.385Z,2.17
2019-03-05T07:57:11.414Z,2.17
2019-03-05T07:58:11.356Z,2.34
2019-03-05T07:59:11.353Z,2.36
2019-03-05T08:00:11.336Z,2.39
2019-03-05T08:01:21.867Z,2.42
2019-03-05T08:02:12.336Z,2.46
2019-03-05T08:03:11.320Z,2.49
2019-03-05T08:04:11.293Z,2.42
2019-03-05T08:05:11.276Z,2.45
2019-03-05T08:06:11.270Z,2.41
2019-03-05T08:07:11.255Z,2.46
2019-03-05T08:08:11.273Z,2.46
2019-03-05T08:09:11.253Z,2.52
2019-03-05T08:10:11.225Z,2.54
2019-03-05T08:11:11.213Z,2.54
2019-03-05T08:12:11.200Z,2.59
2019-03-05T08:13:11.197Z,2.60
2019-03-05T08:14:11.173Z,2.66
2019-03-05T08:15:11.189Z,2.75
2019-03-05T08:16:11.155Z,2.75
2019-03-05T08:17:11.142Z,2.74
2019-03-05T08:18:11.147Z,2.84
2019-03-05T08:19:11.117Z,2.79
2019-03-05T08:20:11.111Z,2.87
2019-03-05T08:21:11.174Z,2.87
2019-03-05T08:22:11.086Z,2.84
2019-03-05T08:23:11.131Z,3.00
2019-03-05T08:24:11.059Z,3.06
2019-03-05T08:25:11.052Z,2.95
2019-03-05T08:26:11.045Z,3.08
2019-03-05T08:27:11.097Z,3.14
2019-03-05T08:28:11.018Z,3.15
2019-03-05T08:29:11.028Z,3.23
2019-03-05T08:30:14.499Z,3.15
2019-03-05T08:31:10.991Z,3.23
2019-03-05T08:32:10.973Z,3.23
2019-03-05T08:33:10.988Z,3.20
2019-03-05T08:34:10.953Z,3.15
2019-03-05T08:35:10.976Z,3.20
2019-03-05T08:36:10.934Z,3.31
2019-03-05T08:37:13.355Z,3.29
2019-03-05T08:38:10.906Z,3.35
2019-03-05T08:39:10.937Z,3.26
2019-03-05T08:40:10.934Z,3.31
2019-03-05T08:41:10.889Z,3.32
2019-03-05T08:42:10.863Z,3.31
2019-03-05T08:43:10.854Z,3.32
2019-03-05T08:44:10.845Z,3.31
2019-03-05T08:45:10.852Z,3.47
2019-03-05T08:46:11.016Z,3.48
2019-03-05T08:47:10.817Z,3.45
2019-03-05T08:48:10.800Z,3.50
2019-03-05T08:49:10.792Z,3.50
2019-03-05T08:50:10.781Z,3.52
2019-03-05T08:51:10.791Z,3.47
2019-03-05T08:52:10.784Z,3.60
2019-03-05T08:53:10.742Z,3.58
2019-03-05T08:54:10.739Z,3.66
2019-03-05T08:55:10.726Z,3.68
2019-03-05T08:56:10.711Z,3.73
2019-03-05T08:57:10.761Z,3.58
2019-03-05T08:58:10.690Z,3.65
2019-03-05T08:59:10.680Z,3.72
2019-03-05T09:00:10.665Z,3.72
2019-03-05T09:01:10.652Z,3.75
2019-03-05T09:02:10.658Z,3.73
2019-03-05T09:03:10.676Z,3.80
2019-03-05T09:04:11.580Z,3.88
2019-03-05T09:05:10.617Z,3.97
2019-03-05T09:06:10.600Z,3.87
2019-03-05T09:07:10.582Z,3.86
2019-03-05T09:08:10.625Z,3.79
2019-03-05T09:09:10.621Z,3.86
2019-03-05T09:10:10.553Z,3.87
2019-03-05T09:11:10.544Z,3.86
2019-03-05T09:12:10.549Z,3.90
2019-03-05T09:13:10.523Z,3.86
2019-03-05T09:14:10.531Z,3.80
2019-03-05T09:15:10.521Z,3.88
2019-03-05T09:16:10.492Z,3.90
2019-03-05T09:17:10.479Z,3.97
2019-03-05T09:18:10.467Z,3.86
2019-03-05T09:19:10.482Z,3.84
2019-03-05T09:20:10.465Z,3.88
2019-03-05T09:21:10.436Z,3.90
2019-03-05T09:22:10.429Z,3.97
2019-03-05T09:23:10.406Z,3.94
2019-03-05T09:24:10.398Z,3.98
2019-03-05T09:25:10.415Z,4.02
2019-03-05T09:26:10.398Z,4.04
2019-03-05T09:27:10.364Z,4.05
2019-03-05T09:28:10.362Z,4.06
2019-03-05T09:29:10.348Z,4.09
2019-03-05T09:30:10.333Z,4.18
2019-03-05T09:31:10.333Z,4.29
2019-03-05T09:32:10.336Z,4.29
2019-03-05T09:33:10.296Z,4.32
2019-03-05T09:34:10.287Z,4.34
2019-03-05T09:35:10.282Z,4.33
2019-03-05T09:36:10.307Z,4.48
2019-03-05T09:37:10.265Z,4.50
2019-03-05T09:38:10.246Z,4.42
2019-03-05T09:39:10.250Z,4.42
2019-03-05T09:40:10.216Z,4.51
2019-03-05T09:41:11.075Z,4.44
2019-03-05T09:42:10.238Z,4.48
2019-03-05T09:43:10.184Z,4.55
2019-03-05T09:44:10.581Z,4.52
2019-03-05T09:45:10.159Z,4.50
2019-03-05T09:46:10.192Z,4.50
2019-03-05T09:47:10.145Z,4.48
2019-03-05T09:48:10.148Z,4.51
2019-03-05T09:49:10.124Z,4.48
2019-03-05T09:50:10.134Z,4.54
2019-03-05T09:51:10.107Z,4.50
2019-03-05T09:52:10.092Z,4.47
2019-03-05T09:53:10.093Z,4.41
2019-03-05T09:54:10.055Z,4.33
2019-03-05T09:55:10.052Z,4.41
2019-03-05T09:56:10.057Z,4.33
2019-03-05T09:57:10.033Z,4.40
2019-03-05T09:58:10.046Z,4.40
2019-03-05T09:59:10.015Z,4.42
2019-03-05T10:00:10.002Z,4.50
2019-03-05T10:01:09.985Z,4.42
2019-03-05T10:02:10.069Z,4.44
2019-03-05T10:03:09.984Z,4.45
2019-03-05T10:04:09.946Z,4.48
2019-03-05T10:05:09.942Z,4.48
2019-03-05T10:06:09.930Z,4.60
2019-03-05T10:07:18.546Z,4.66
2019-03-05T10:08:10.956Z,4.58
2019-03-05T10:09:09.896Z,4.60
2019-03-05T10:10:09.885Z,4.77
2019-03-05T10:11:09.874Z,4.85
2019-03-05T10:12:09.862Z,4.85
2019-03-05T10:13:09.848Z,4.96
2019-03-05T10:14:09.882Z,5.02
2019-03-05T10:15:09.826Z,5.02
2019-03-05T10:16:09.821Z,5.09
2019-03-05T10:17:09.808Z,5.13
2019-03-05T10:18:12.934Z,5.06
2019-03-05T10:19:09.783Z,5.10
2019-03-05T10:20:09.918Z,5.15
2019-03-05T10:21:11.829Z,5.07
2019-03-05T10:22:09.752Z,5.12
2019-03-05T10:23:09.745Z,5.03
2019-03-05T10:24:10.948Z,5.04
2019-03-05T10:25:09.719Z,5.06
2019-03-05T10:26:10.633Z,5.09
2019-03-05T10:27:09.699Z,5.04
2019-03-05T10:28:09.686Z,5.02
2019-03-05T10:29:09.672Z,4.92
2019-03-05T10:30:09.666Z,4.96
2019-03-05T10:31:09.665Z,4.89
2019-03-05T10:32:09.666Z,4.89
2019-03-05T10:33:09.624Z,4.88
2019-03-05T10:34:09.617Z,4.94
2019-03-05T10:35:09.603Z,4.92
2019-03-05T10:36:09.613Z,4.89
2019-03-05T10:37:14.637Z,4.92
2019-03-05T10:38:10.697Z,4.92
2019-03-05T10:39:09.564Z,4.96
2019-03-05T10:40:09.558Z,4.94
2019-03-05T10:41:09.542Z,4.97
2019-03-05T10:42:09.571Z,5.03
2019-03-05T10:43:09.549Z,4.91
2019-03-05T10:44:09.503Z,4.94
2019-03-05T10:45:09.491Z,4.96
2019-03-05T10:46:09.486Z,4.99
2019-03-05T10:47:09.475Z,4.99
2019-03-05T10:48:09.485Z,4.99
2019-03-05T10:49:09.476Z,4.96
2019-03-05T10:50:15.197Z,4.96
2019-03-05T10:51:09.428Z,4.94
2019-03-05T10:52:09.413Z,4.94
2019-03-05T10:53:09.403Z,5.04
2019-03-05T10:54:09.409Z,5.02
2019-03-05T10:55:09.467Z,5.04
2019-03-05T10:56:09.371Z,5.04
2019-03-05T10:57:09.364Z,5.03
2019-03-05T10:58:09.345Z,5.03
2019-03-05T10:59:09.376Z,5.02
2019-03-05T11:00:09.328Z,5.04
2019-03-05T11:01:09.335Z,5.10
2019-03-05T11:02:09.316Z,5.02
2019-03-05T11:03:09.288Z,5.02
2019-03-05T11:04:09.276Z,4.92
2019-03-05T11:05:09.279Z,4.94
2019-03-05T11:06:09.272Z,4.94
2019-03-05T11:07:09.266Z,4.94
2019-03-05T11:08:09.231Z,4.91
2019-03-05T11:09:09.222Z,4.91
2019-03-05T11:10:09.237Z,4.88
2019-03-05T11:11:13.442Z,4.89
2019-03-05T11:12:09.192Z,4.82
2019-03-05T11:13:09.215Z,4.96
2019-03-05T11:14:09.165Z,4.89
2019-03-05T11:15:09.157Z,5.04
2019-03-05T11:16:09.342Z,4.97
2019-03-05T11:17:09.136Z,5.12
2019-03-05T11:18:09.121Z,4.99
2019-03-05T11:19:09.132Z,5.00
2019-03-05T11:20:09.104Z,5.07
2019-03-05T11:21:09.111Z,5.02
2019-03-05T11:22:09.086Z,5.07
2019-03-05T11:23:11.550Z,5.10
2019-03-05T11:24:09.052Z,5.02
2019-03-05T11:25:09.062Z,5.07
2019-03-05T11:26:09.032Z,5.09
2019-03-05T11:27:09.044Z,5.15
2019-03-05T11:28:09.013Z,5.12
2019-03-05T11:29:09.004Z,5.00
2019-03-05T11:30:08.980Z,5.04
2019-03-05T11:31:09.009Z,5.00
2019-03-05T11:32:08.966Z,5.02
2019-03-05T11:33:08.979Z,5.00
2019-03-05T11:34:08.949Z,5.12
2019-03-05T11:35:08.936Z,5.06
2019-03-05T11:36:08.917Z,5.04
2019-03-05T11:37:08.934Z,5.02
2019-03-05T11:38:08.905Z,5.07
2019-03-05T11:39:08.897Z,5.06
2019-03-05T11:40:09.247Z,5.03
2019-03-05T11:41:08.871Z,5.02
2019-03-05T11:42:08.865Z,5.04
2019-03-05T11:43:08.846Z,5.04
2019-03-05T11:44:08.873Z,5.04
2019-03-05T11:45:11.620Z,5.02
2019-03-05T11:46:08.809Z,5.12
2019-03-05T11:47:08.798Z,5.15
2019-03-05T11:48:08.788Z,5.09
2019-03-05T11:49:08.817Z,5.09
2019-03-05T11:50:08.798Z,5.13
2019-03-05T11:51:08.755Z,5.18
2019-03-05T11:52:08.745Z,5.20
2019-03-05T11:53:08.795Z,5.15
2019-03-05T11:54:08.727Z,5.09
2019-03-05T11:55:08.740Z,5.12
2019-03-05T11:56:08.726Z,5.10
2019-03-05T11:57:08.688Z,5.15
2019-03-05T11:58:08.687Z,5.12
2019-03-05T11:59:08.667Z,5.10
2019-03-05T12:00:08.656Z,5.06
2019-03-05T12:01:08.656Z,5.04
2019-03-05T12:02:09.849Z,5.03
2019-03-05T12:03:08.622Z,4.97
2019-03-05T12:04:08.615Z,4.94
2019-03-05T12:05:08.596Z,4.96
2019-03-05T12:06:08.598Z,5.04
2019-03-05T12:07:08.577Z,4.88
2019-03-05T12:08:08.590Z,4.91
2019-03-05T12:09:08.557Z,4.89
2019-03-05T12:10:08.547Z,4.91
2019-03-05T12:11:08.555Z,4.73
2019-03-05T12:12:08.519Z,4.67
2019-03-05T12:13:08.510Z,4.58
2019-03-05T12:14:08.518Z,4.45
2019-03-05T12:15:08.496Z,4.42
2019-03-05T12:16:08.475Z,4.32
2019-03-05T12:17:08.519Z,4.14
2019-03-05T12:18:08.460Z,3.97
2019-03-05T12:19:08.450Z,3.79
2019-03-05T12:20:08.483Z,3.65
2019-03-05T12:21:08.429Z,3.48
2019-03-05T12:22:08.419Z,3.45
2019-03-05T12:23:10.368Z,3.36
2019-03-05T12:24:08.391Z,3.40
2019-03-05T12:25:08.376Z,3.35
2019-03-05T12:26:08.384Z,3.42
2019-03-05T12:27:08.352Z,3.48
2019-03-05T12:28:10.558Z,3.50
2019-03-05T12:29:08.367Z,3.43
2019-03-05T12:30:08.373Z,3.47
2019-03-05T12:31:08.317Z,3.62
2019-03-05T12:32:08.305Z,3.57
2019-03-05T12:33:08.288Z,3.55
2019-03-05T12:34:08.300Z,3.58
2019-03-05T12:35:08.288Z,3.58
2019-03-05T12:36:08.248Z,3.58
2019-03-05T12:37:08.239Z,3.58
2019-03-05T12:38:08.247Z,3.61
2019-03-05T12:39:08.223Z,3.58
2019-03-05T12:40:08.207Z,3.57
2019-03-05T12:41:08.208Z,3.52
2019-03-05T12:42:08.189Z,3.57
2019-03-05T12:43:08.165Z,3.60
2019-03-05T12:44:08.185Z,3.51
2019-03-05T12:45:08.155Z,3.58
2019-03-05T12:46:08.162Z,3.57
2019-03-05T12:47:08.128Z,3.45
2019-03-05T12:48:08.124Z,3.47
2019-03-05T12:49:08.108Z,3.50
2019-03-05T12:50:08.104Z,3.48
2019-03-05T12:51:08.087Z,3.48
2019-03-05T12:52:08.095Z,3.47
2019-03-05T12:53:08.059Z,3.42
2019-03-05T12:54:08.046Z,3.43
2019-03-05T12:55:08.038Z,3.47
2019-03-05T12:56:08.045Z,3.45
2019-03-05T12:57:08.012Z,3.42
2019-03-05T12:58:08.018Z,3.36
2019-03-05T12:59:07.998Z,3.32
2019-03-05T13:00:07.985Z,3.29
2019-03-05T13:01:08.063Z,3.29
2019-03-05T13:02:07.975Z,3.26
2019-03-05T13:03:07.969Z,3.26
2019-03-05T13:04:07.932Z,3.15
2019-03-05T13:05:07.932Z,3.20
2019-03-05T13:06:07.919Z,3.18
2019-03-05T13:07:07.902Z,3.20
2019-03-05T13:08:07.915Z,3.15
2019-03-05T13:09:07.900Z,3.31
2019-03-05T13:10:07.873Z,3.28
2019-03-05T13:11:09.383Z,3.26
2019-03-05T13:12:07.846Z,3.23
2019-03-05T13:13:10.423Z,3.26
2019-03-05T13:14:12.190Z,3.26
2019-03-05T13:15:07.824Z,3.24
2019-03-05T13:16:07.818Z,3.28
2019-03-05T13:17:08.610Z,3.23
2019-03-05T13:18:07.779Z,3.20
2019-03-05T13:19:09.569Z,3.40